createdAt,value
2023-07-02T00:01:33.505Z,19.60
2023-07-02T00:04:02.574Z,19.50
2023-07-02T00:06:34.051Z,19.40
2023-07-02T00:09:03.124Z,19.30
2023-07-02T00:11:32.161Z,19.20
2023-07-02T00:14:01.215Z,19.20
2023-07-02T00:16:31.599Z,19.10
2023-07-02T00:19:01.249Z,19.00
2023-07-02T00:21:30.455Z,19.00
2023-07-02T00:24:00.051Z,19.00
2023-07-02T00:26:29.590Z,19.00
2023-07-02T00:28:59.433Z,19.00
2023-07-02T00:31:30.579Z,19.00
2023-07-02T00:33:59.731Z,19.00
2023-07-02T00:36:28.620Z,19.00
2023-07-02T00:38:57.864Z,19.00
2023-07-02T00:41:27.342Z,19.00
2023-07-02T00:43:56.780Z,19.00
2023-07-02T00:46:27.505Z,19.00
2023-07-02T00:48:58.898Z,19.00
2023-07-02T00:51:29.756Z,19.00
2023-07-02T00:54:17.915Z,19.00
2023-07-02T00:56:47.373Z,19.10
2023-07-02T00:59:37.019Z,19.00
2023-07-02T01:02:06.480Z,19.00
2023-07-02T01:04:38.605Z,19.00
2023-07-02T01:07:11.098Z,19.00
2023-07-02T01:09:40.476Z,19.00
2023-07-02T01:12:12.643Z,18.90
2023-07-02T01:14:46.453Z,18.90
2023-07-02T01:17:20.573Z,18.90
2023-07-02T01:20:11.951Z,18.90
2023-07-02T01:22:41.093Z,18.90
2023-07-02T01:25:11.069Z,18.80
2023-07-02T01:27:40.406Z,18.80
2023-07-02T01:30:12.183Z,18.80
2023-07-02T01:32:41.768Z,18.70
2023-07-02T01:35:12.782Z,18.70
2023-07-02T01:37:41.762Z,18.60
2023-07-02T01:40:11.318Z,18.60
2023-07-02T01:42:40.604Z,18.50
2023-07-02T01:45:10.601Z,18.50
2023-07-02T01:47:39.727Z,18.50
2023-07-02T01:50:09.638Z,18.40
2023-07-02T01:52:40.238Z,18.40
2023-07-02T01:55:10.041Z,18.30
2023-07-02T01:57:39.055Z,18.30
2023-07-02T02:00:10.560Z,18.30
2023-07-02T02:02:45.774Z,18.30
2023-07-02T02:05:14.895Z,18.20
2023-07-02T02:07:45.181Z,18.20
2023-07-02T02:10:16.273Z,18.20
2023-07-02T02:12:45.406Z,18.20
2023-07-02T02:15:15.582Z,18.20
2023-07-02T02:17:44.637Z,18.20
2023-07-02T02:20:32.025Z,18.20
2023-07-02T02:23:02.472Z,18.20
2023-07-02T02:25:31.628Z,18.20
2023-07-02T02:28:00.540Z,18.30
2023-07-02T02:30:29.523Z,18.20
2023-07-02T02:32:58.760Z,18.20
2023-07-02T02:35:28.892Z,18.20
2023-07-02T02:37:57.825Z,18.20
2023-07-02T02:40:28.496Z,18.20
2023-07-02T02:42:57.500Z,18.10
2023-07-02T02:45:26.791Z,18.10
2023-07-02T02:47:55.809Z,18.00
2023-07-02T02:50:25.291Z,18.00
2023-07-02T02:52:54.329Z,18.00
2023-07-02T02:55:23.459Z,17.90
2023-07-02T02:57:53.763Z,17.80
2023-07-02T03:00:22.740Z,17.80
2023-07-02T03:02:51.611Z,17.70
2023-07-02T03:05:20.621Z,17.70
2023-07-02T03:07:49.695Z,17.60
2023-07-02T03:10:18.725Z,17.60
2023-07-02T03:12:47.684Z,17.50
2023-07-02T03:15:18.930Z,17.50
2023-07-02T03:17:48.113Z,17.50
2023-07-02T03:20:18.061Z,17.50
2023-07-02T03:22:47.026Z,17.50
2023-07-02T03:25:34.356Z,17.50
2023-07-02T03:28:03.282Z,17.50
2023-07-02T03:30:33.898Z,17.60
2023-07-02T03:33:02.969Z,17.60
2023-07-02T03:35:31.878Z,17.60
2023-07-02T03:38:00.751Z,17.60
2023-07-02T03:40:29.770Z,17.60
2023-07-02T03:42:58.713Z,17.70
2023-07-02T03:45:27.532Z,17.80
2023-07-02T03:47:58.080Z,17.80
2023-07-02T03:50:27.085Z,17.90
2023-07-02T03:52:56.123Z,17.90
2023-07-02T03:55:25.325Z,18.00
2023-07-02T03:57:54.323Z,18.00
2023-07-02T04:00:23.395Z,18.10
2023-07-02T04:02:53.637Z,18.20
2023-07-02T04:05:24.188Z,18.20
2023-07-02T04:07:53.282Z,18.30
2023-07-02T04:10:22.291Z,18.50
2023-07-02T04:12:51.147Z,18.60
2023-07-02T04:15:20.145Z,18.70
2023-07-02T04:17:49.082Z,18.80
2023-07-02T04:20:20.184Z,18.90
2023-07-02T04:22:50.862Z,19.00
2023-07-02T04:25:25.617Z,19.10
2023-07-02T04:27:59.980Z,19.20
2023-07-02T04:30:29.141Z,19.30
2023-07-02T04:32:59.040Z,19.40
2023-07-02T04:35:27.855Z,19.50
2023-07-02T04:37:58.698Z,19.70
2023-07-02T04:40:27.704Z,19.70
2023-07-02T04:42:59.044Z,19.80
2023-07-02T04:45:37.661Z,19.90
2023-07-02T04:48:07.055Z,20.10
2023-07-02T04:50:35.918Z,20.10
2023-07-02T04:53:06.294Z,20.20
2023-07-02T04:55:35.358Z,20.30
2023-07-02T04:58:04.263Z,20.40
2023-07-02T05:00:33.140Z,20.50
2023-07-02T05:03:02.224Z,20.60
2023-07-02T05:05:31.331Z,20.70
2023-07-02T05:08:00.379Z,20.70
2023-07-02T05:10:30.795Z,20.80
2023-07-02T05:13:18.224Z,20.90
2023-07-02T05:15:47.560Z,21.00
2023-07-02T05:18:16.619Z,21.10
2023-07-02T05:20:45.705Z,21.10
2023-07-02T05:23:15.083Z,21.20
2023-07-02T05:25:47.285Z,21.30
2023-07-02T05:28:16.432Z,21.40
2023-07-02T05:30:45.754Z,21.50
2023-07-02T05:33:15.063Z,21.60
2023-07-02T05:35:47.586Z,21.70
2023-07-02T05:38:16.962Z,21.80
2023-07-02T05:41:06.479Z,21.90
2023-07-02T05:43:35.400Z,22.00
2023-07-02T05:46:04.407Z,22.10
2023-07-02T05:48:33.260Z,22.20
2023-07-02T05:51:02.084Z,22.30
2023-07-02T05:53:31.193Z,22.40
2023-07-02T05:56:00.714Z,22.50
2023-07-02T05:58:42.950Z,22.60
2023-07-02T06:01:16.459Z,22.70
2023-07-02T06:03:46.948Z,22.80
2023-07-02T06:06:16.083Z,22.90
2023-07-02T06:08:45.061Z,23.00
2023-07-02T06:11:15.012Z,23.10
2023-07-02T06:13:45.336Z,23.20
2023-07-02T06:16:14.575Z,23.30
2023-07-02T06:18:43.610Z,23.40
2023-07-02T06:21:12.650Z,23.60
2023-07-02T06:23:45.546Z,23.70
2023-07-02T06:26:14.724Z,23.80
2023-07-02T06:28:45.158Z,23.90
2023-07-02T06:31:14.808Z,24.00
2023-07-02T06:33:43.897Z,24.10
2023-07-02T06:36:16.161Z,24.20
2023-07-02T06:38:56.225Z,24.40
2023-07-02T06:41:26.340Z,24.60
2023-07-02T06:43:56.985Z,24.60
2023-07-02T06:46:26.364Z,24.80
2023-07-02T06:48:55.369Z,24.90
2023-07-02T06:51:32.772Z,25.00
2023-07-02T06:54:05.785Z,25.10
2023-07-02T06:56:35.461Z,25.20
2023-07-02T06:59:24.687Z,25.30
2023-07-02T07:01:53.834Z,25.50
2023-07-02T07:04:23.408Z,25.60
2023-07-02T07:06:52.416Z,25.70
2023-07-02T07:09:21.339Z,25.80
2023-07-02T07:11:50.276Z,25.90
2023-07-02T07:14:19.320Z,26.00
2023-07-02T07:16:50.109Z,26.00
2023-07-02T07:19:19.600Z,26.20
2023-07-02T07:21:48.504Z,26.30
2023-07-02T07:24:17.463Z,26.40
2023-07-02T07:26:46.381Z,26.50
2023-07-02T07:29:15.248Z,26.60
2023-07-02T07:31:44.962Z,26.70
2023-07-02T07:34:15.524Z,26.80
2023-07-02T07:36:44.610Z,27.00
2023-07-02T07:39:13.441Z,27.10
2023-07-02T07:41:49.546Z,27.20
2023-07-02T07:44:18.546Z,27.30
2023-07-02T07:46:47.587Z,27.40
2023-07-02T07:49:18.893Z,27.50
2023-07-02T07:51:48.254Z,27.60
2023-07-02T07:54:17.290Z,27.80
2023-07-02T07:56:48.939Z,27.90
2023-07-02T07:59:18.095Z,28.00
2023-07-02T08:01:47.969Z,28.10
2023-07-02T08:04:21.440Z,28.20
2023-07-02T08:06:52.149Z,28.40
2023-07-02T08:09:22.264Z,28.50
2023-07-02T08:11:51.205Z,28.60
2023-07-02T08:14:20.511Z,28.70
2023-07-02T08:17:08.159Z,28.80
2023-07-02T08:19:38.500Z,28.90
2023-07-02T08:22:07.969Z,29.00
2023-07-02T08:24:37.076Z,29.20
2023-07-02T08:27:06.661Z,29.30
2023-07-02T08:29:53.984Z,29.30
2023-07-02T08:32:23.023Z,29.40
2023-07-02T08:34:53.863Z,29.50
2023-07-02T08:37:23.986Z,29.60
2023-07-02T08:39:54.066Z,29.70
2023-07-02T08:42:23.610Z,29.80
2023-07-02T08:44:58.675Z,30.00
2023-07-02T08:47:28.866Z,30.10
2023-07-02T08:49:59.549Z,30.20
2023-07-02T08:52:28.616Z,30.30
2023-07-02T08:54:57.589Z,30.40
2023-07-02T08:57:26.543Z,30.50
2023-07-02T08:59:55.540Z,30.60
2023-07-02T09:02:33.991Z,30.80
2023-07-02T09:05:05.343Z,30.90
2023-07-02T09:07:54.935Z,31.00
2023-07-02T09:10:32.588Z,31.10
2023-07-02T09:13:16.604Z,31.10
2023-07-02T09:15:46.310Z,31.40
2023-07-02T09:18:22.348Z,31.40
2023-07-02T09:20:57.045Z,31.50
2023-07-02T09:23:36.973Z,31.70
2023-07-02T09:26:06.500Z,31.70
2023-07-02T09:28:35.598Z,31.90
2023-07-02T09:31:04.529Z,31.90
2023-07-02T09:33:34.105Z,32.00
2023-07-02T09:36:05.878Z,32.10
2023-07-02T09:38:35.342Z,32.20
2023-07-02T09:41:06.189Z,32.30
2023-07-02T09:43:35.545Z,32.40
2023-07-02T09:46:06.188Z,32.50
2023-07-02T09:48:38.185Z,32.60
2023-07-02T09:51:08.955Z,32.60
2023-07-02T09:53:37.992Z,32.70
2023-07-02T09:56:09.945Z,32.90
2023-07-02T09:58:39.053Z,32.90
2023-07-02T10:01:08.037Z,33.00
2023-07-02T10:03:38.935Z,33.10
2023-07-02T10:06:10.186Z,33.20
2023-07-02T10:08:39.539Z,33.30
2023-07-02T10:11:12.720Z,33.40
2023-07-02T10:13:42.860Z,33.50
2023-07-02T10:16:11.837Z,33.50
2023-07-02T10:18:42.489Z,33.50
2023-07-02T10:21:20.073Z,33.60
2023-07-02T10:23:49.314Z,33.60
2023-07-02T10:26:20.014Z,33.60
2023-07-02T10:29:03.875Z,33.70
2023-07-02T10:31:33.064Z,33.70
2023-07-02T10:34:02.022Z,33.80
2023-07-02T10:36:32.457Z,33.80
2023-07-02T10:39:19.753Z,33.90
2023-07-02T10:41:48.823Z,33.90
2023-07-02T10:44:18.975Z,34.10
2023-07-02T10:46:48.746Z,34.10
2023-07-02T10:49:20.474Z,34.20
2023-07-02T10:52:01.328Z,34.30
2023-07-02T10:54:43.509Z,34.40
2023-07-02T10:57:13.485Z,34.50
2023-07-02T10:59:42.593Z,34.60
2023-07-02T11:02:11.977Z,34.70
2023-07-02T11:04:41.225Z,34.80
2023-07-02T11:07:13.452Z,34.90
2023-07-02T11:09:42.520Z,34.90
2023-07-02T11:12:11.547Z,34.90
2023-07-02T11:14:42.520Z,35.00
2023-07-02T11:17:11.990Z,35.10
2023-07-02T11:19:41.054Z,35.20
2023-07-02T11:22:11.407Z,35.30
2023-07-02T11:24:40.776Z,35.30
2023-07-02T11:27:09.965Z,35.40
2023-07-02T11:29:39.928Z,35.40
2023-07-02T11:32:10.775Z,35.40
2023-07-02T11:34:40.755Z,35.50
2023-07-02T11:37:11.646Z,35.50
2023-07-02T11:39:40.706Z,35.60
2023-07-02T11:42:09.711Z,35.60
2023-07-02T11:44:38.728Z,35.70
2023-07-02T11:47:08.715Z,35.90
2023-07-02T11:49:37.702Z,35.90
2023-07-02T11:52:07.100Z,36.00
2023-07-02T11:54:39.667Z,36.10
2023-07-02T11:57:09.961Z,36.20
2023-07-02T11:59:57.566Z,36.30
2023-07-02T12:02:26.659Z,36.40
2023-07-02T12:04:55.913Z,36.50
2023-07-02T12:07:26.518Z,36.50
2023-07-02T12:09:57.492Z,36.60
2023-07-02T12:12:26.526Z,36.60
2023-07-02T12:14:55.502Z,36.70
2023-07-02T12:17:25.272Z,36.70
2023-07-02T12:19:54.317Z,36.70
2023-07-02T12:22:24.266Z,36.80
2023-07-02T12:24:55.014Z,36.80
2023-07-02T12:27:26.986Z,36.70
2023-07-02T12:29:56.097Z,36.70
2023-07-02T12:32:25.388Z,36.60
2023-07-02T12:34:54.542Z,36.60
2023-07-02T12:37:23.547Z,36.60
2023-07-02T12:39:52.444Z,36.50
2023-07-02T12:42:21.914Z,36.50
2023-07-02T12:44:53.138Z,36.50
2023-07-02T12:47:22.411Z,36.50
2023-07-02T12:49:51.917Z,36.50
2023-07-02T12:52:20.718Z,36.40
2023-07-02T12:54:49.892Z,36.40
2023-07-02T12:57:20.657Z,36.40
2023-07-02T12:59:49.864Z,36.40
2023-07-02T13:02:20.442Z,36.40
2023-07-02T13:04:49.851Z,36.40
2023-07-02T13:07:19.957Z,36.30
2023-07-02T13:09:49.343Z,36.20
2023-07-02T13:12:19.355Z,36.20
2023-07-02T13:14:48.457Z,36.10
2023-07-02T13:17:17.413Z,36.10
2023-07-02T13:19:47.964Z,36.10
2023-07-02T13:22:16.949Z,36.00
2023-07-02T13:24:45.965Z,36.00
2023-07-02T13:27:19.272Z,35.90
2023-07-02T13:29:48.267Z,35.80
2023-07-02T13:32:17.121Z,35.70
2023-07-02T13:34:47.496Z,35.60
2023-07-02T13:37:19.322Z,35.60
2023-07-02T13:39:48.730Z,35.50
2023-07-02T13:42:18.207Z,35.60
2023-07-02T13:44:47.180Z,35.50
2023-07-02T13:47:16.172Z,35.50
2023-07-02T13:49:46.463Z,35.50
2023-07-02T13:52:15.486Z,35.40
2023-07-02T13:54:44.420Z,35.40
2023-07-02T13:57:13.441Z,35.40
2023-07-02T13:59:43.915Z,35.40
2023-07-02T14:02:12.972Z,35.30
2023-07-02T14:04:42.191Z,35.30
2023-07-02T14:07:11.285Z,35.20
2023-07-02T14:09:40.425Z,35.20
2023-07-02T14:12:10.116Z,35.10
2023-07-02T14:14:40.064Z,35.10
2023-07-02T14:17:10.870Z,35.10
2023-07-02T14:19:39.883Z,35.00
2023-07-02T14:22:08.845Z,35.00
2023-07-02T14:24:37.975Z,34.90
2023-07-02T14:27:07.953Z,34.90
2023-07-02T14:29:37.442Z,34.90
2023-07-02T14:32:08.181Z,34.80
2023-07-02T14:34:39.373Z,34.80
2023-07-02T14:37:08.644Z,34.70
2023-07-02T14:39:37.840Z,34.70
2023-07-02T14:42:07.968Z,34.70
2023-07-02T14:44:55.649Z,34.70
2023-07-02T14:47:25.012Z,34.60
2023-07-02T14:50:15.584Z,34.60
2023-07-02T14:52:45.775Z,34.60
2023-07-02T14:55:14.980Z,34.50
2023-07-02T14:57:43.881Z,34.40
2023-07-02T15:00:14.274Z,34.30
2023-07-02T15:02:44.058Z,34.30
2023-07-02T15:05:14.844Z,34.30
2023-07-02T15:07:43.903Z,34.30
2023-07-02T15:10:13.433Z,34.20
2023-07-02T15:12:42.577Z,34.20
2023-07-02T15:15:11.742Z,34.20
2023-07-02T15:17:40.810Z,34.10
2023-07-02T15:20:10.490Z,34.00
2023-07-02T15:22:40.834Z,34.00
2023-07-02T15:25:11.382Z,34.00
2023-07-02T15:27:59.049Z,33.90
2023-07-02T15:30:28.089Z,33.90
2023-07-02T15:32:57.762Z,33.80
2023-07-02T15:35:26.779Z,33.80
2023-07-02T15:37:57.156Z,33.80
2023-07-02T15:40:27.761Z,33.70
2023-07-02T15:42:57.395Z,33.70
2023-07-02T15:45:26.391Z,33.60
2023-07-02T15:47:55.737Z,33.50
2023-07-02T15:50:25.134Z,33.50
2023-07-02T15:52:54.250Z,33.50
2023-07-02T15:55:25.209Z,33.40
2023-07-02T15:57:54.435Z,33.40
2023-07-02T16:00:23.964Z,33.30
2023-07-02T16:02:53.382Z,33.30
2023-07-02T16:05:22.845Z,33.20
2023-07-02T16:07:51.997Z,33.20
2023-07-02T16:10:21.289Z,33.10
2023-07-02T16:12:54.222Z,33.10
2023-07-02T16:15:23.541Z,33.00
2023-07-02T16:17:53.540Z,32.90
2023-07-02T16:20:23.004Z,32.90
2023-07-02T16:22:51.981Z,32.80
2023-07-02T16:25:22.095Z,32.70
2023-07-02T16:27:55.627Z,32.60
2023-07-02T16:30:26.878Z,32.50
2023-07-02T16:32:56.143Z,32.40
2023-07-02T16:35:25.385Z,32.40
2023-07-02T16:37:54.519Z,32.30
2023-07-02T16:40:23.716Z,32.20
2023-07-02T16:42:53.381Z,32.10
2023-07-02T16:45:24.070Z,32.00
2023-07-02T16:47:53.122Z,32.00
2023-07-02T16:50:22.055Z,31.80
2023-07-02T16:52:50.988Z,31.80
2023-07-02T16:55:20.927Z,31.70
2023-07-02T16:57:50.139Z,31.60
2023-07-02T17:00:20.025Z,31.40
2023-07-02T17:02:50.625Z,31.30
2023-07-02T17:05:20.103Z,31.20
2023-07-02T17:07:49.110Z,31.10
2023-07-02T17:10:18.488Z,31.00
2023-07-02T17:12:47.527Z,30.90
2023-07-02T17:15:17.191Z,30.80
2023-07-02T17:17:46.252Z,30.70
2023-07-02T17:20:17.343Z,30.60
2023-07-02T17:22:46.318Z,30.50
2023-07-02T17:25:15.481Z,30.40
2023-07-02T17:27:44.406Z,30.40
2023-07-02T17:30:15.717Z,30.20
2023-07-02T17:32:44.893Z,30.20
2023-07-02T17:35:16.161Z,30.10
2023-07-02T17:37:45.344Z,30.00
2023-07-02T17:40:14.726Z,29.90
2023-07-02T17:42:44.318Z,29.80
2023-07-02T17:45:15.021Z,29.80
2023-07-02T17:47:44.653Z,29.70
2023-07-02T17:50:19.480Z,29.60
2023-07-02T17:52:49.014Z,29.50
2023-07-02T17:55:18.295Z,29.40
2023-07-02T17:57:50.196Z,29.30
2023-07-02T18:00:19.670Z,29.20
2023-07-02T18:02:48.689Z,29.10
2023-07-02T18:05:21.882Z,29.00
2023-07-02T18:07:52.325Z,28.90
2023-07-02T18:10:21.564Z,28.80
2023-07-02T18:12:50.473Z,28.70
2023-07-02T18:15:19.614Z,28.60
2023-07-02T18:17:53.432Z,28.50
2023-07-02T18:20:24.187Z,28.50
2023-07-02T18:22:53.319Z,28.40
2023-07-02T18:25:22.242Z,28.30
2023-07-02T18:28:05.091Z,28.30
2023-07-02T18:30:34.240Z,28.20
2023-07-02T18:33:03.373Z,28.10
2023-07-02T18:35:35.743Z,28.00
2023-07-02T18:38:05.057Z,28.00
2023-07-02T18:40:34.289Z,27.90
2023-07-02T18:43:03.661Z,27.80
2023-07-02T18:45:33.080Z,27.70
2023-07-02T18:48:02.666Z,27.60
2023-07-02T18:50:34.770Z,27.50
2023-07-02T18:53:07.508Z,27.40
2023-07-02T18:55:36.909Z,27.40
2023-07-02T18:58:06.026Z,27.20
2023-07-02T19:00:38.408Z,27.20
2023-07-02T19:03:07.842Z,27.20
2023-07-02T19:05:38.476Z,27.10
2023-07-02T19:08:07.476Z,27.00
2023-07-02T19:10:38.473Z,26.90
2023-07-02T19:13:07.674Z,26.90
2023-07-02T19:15:36.751Z,26.80
2023-07-02T19:18:05.884Z,26.80
2023-07-02T19:20:34.824Z,26.70
2023-07-02T19:23:06.200Z,26.70
2023-07-02T19:25:35.387Z,26.60
2023-07-02T19:28:04.555Z,26.50
2023-07-02T19:30:33.770Z,26.50
2023-07-02T19:33:02.813Z,26.50
2023-07-02T19:35:32.220Z,26.40
2023-07-02T19:38:01.159Z,26.40
2023-07-02T19:40:31.802Z,26.30
2023-07-02T19:43:00.770Z,26.30
2023-07-02T19:45:29.729Z,26.20
2023-07-02T19:47:59.620Z,26.20
2023-07-02T19:50:29.159Z,26.20
2023-07-02T19:52:58.164Z,26.10
2023-07-02T19:55:27.240Z,26.00
2023-07-02T19:57:57.512Z,26.00
2023-07-02T20:00:26.753Z,26.00
2023-07-02T20:02:55.892Z,25.90
2023-07-02T20:05:24.930Z,25.80
2023-07-02T20:07:57.750Z,25.80
2023-07-02T20:10:26.792Z,25.70
2023-07-02T20:12:57.105Z,25.70
2023-07-02T20:15:29.407Z,25.60
2023-07-02T20:17:58.885Z,25.60
2023-07-02T20:20:32.329Z,25.50
2023-07-02T20:23:01.586Z,25.50
2023-07-02T20:25:49.383Z,25.50
2023-07-02T20:28:24.212Z,25.40
2023-07-02T20:30:53.466Z,25.30
2023-07-02T20:33:22.575Z,25.30
2023-07-02T20:35:52.565Z,25.20
2023-07-02T20:38:21.846Z,25.20
2023-07-02T20:41:02.507Z,25.20
2023-07-02T20:43:35.014Z,25.20
2023-07-02T20:46:05.581Z,25.10
2023-07-02T20:48:36.442Z,25.10
2023-07-02T20:51:05.718Z,25.10
2023-07-02T20:53:34.734Z,25.00
2023-07-02T20:56:03.894Z,25.00
2023-07-02T20:58:35.031Z,25.00
2023-07-02T21:01:04.839Z,25.00
2023-07-02T21:03:34.268Z,24.90
2023-07-02T21:06:07.559Z,24.90
2023-07-02T21:08:37.189Z,24.90
2023-07-02T21:11:16.446Z,24.80
2023-07-02T21:13:58.682Z,24.80
2023-07-02T21:16:28.046Z,24.70
2023-07-02T21:18:56.871Z,24.70
2023-07-02T21:21:25.977Z,24.70
2023-07-02T21:23:55.636Z,24.70
2023-07-02T21:26:24.693Z,24.60
2023-07-02T21:28:53.737Z,24.70
2023-07-02T21:31:24.282Z,24.60
2023-07-02T21:33:53.266Z,24.60
2023-07-02T21:36:22.278Z,24.60
2023-07-02T21:38:51.589Z,24.50
2023-07-02T21:41:39.035Z,24.50
2023-07-02T21:44:08.692Z,24.40
2023-07-02T21:46:39.373Z,24.40
2023-07-02T21:49:08.347Z,24.40
2023-07-02T21:51:37.203Z,24.40
2023-07-02T21:54:06.433Z,24.30
2023-07-02T21:56:35.263Z,24.30
2023-07-02T21:59:04.338Z,24.20
2023-07-02T22:01:33.364Z,24.20
2023-07-02T22:04:06.102Z,24.20
2023-07-02T22:06:53.795Z,24.10
2023-07-02T22:09:22.888Z,24.10
2023-07-02T22:11:51.993Z,24.00
2023-07-02T22:14:20.873Z,24.00
2023-07-02T22:16:49.903Z,24.00
2023-07-02T22:19:21.391Z,24.00
2023-07-02T22:21:50.665Z,23.90
2023-07-02T22:24:19.451Z,23.90
2023-07-02T22:26:48.538Z,23.90
2023-07-02T22:29:17.652Z,23.90
2023-07-02T22:31:46.621Z,23.90
2023-07-02T22:34:16.278Z,23.90
2023-07-02T22:36:47.178Z,23.90
2023-07-02T22:39:17.434Z,23.80
2023-07-02T22:41:46.423Z,23.80
2023-07-02T22:44:15.305Z,23.80
2023-07-02T22:46:44.386Z,23.80
2023-07-02T22:49:13.391Z,23.80
2023-07-02T22:51:42.960Z,23.80
2023-07-02T22:54:13.792Z,23.80
2023-07-02T22:56:42.705Z,23.80
2023-07-02T22:59:11.619Z,23.80
2023-07-02T23:01:40.596Z,23.80
2023-07-02T23:04:09.762Z,23.80
2023-07-02T23:06:39.603Z,23.80
2023-07-02T23:09:08.944Z,23.80
2023-07-02T23:11:39.377Z,23.80
2023-07-02T23:14:08.630Z,23.80
2023-07-02T23:16:37.760Z,23.80
2023-07-02T23:19:06.872Z,23.80
2023-07-02T23:21:36.302Z,23.80
2023-07-02T23:24:05.347Z,23.80
2023-07-02T23:26:35.962Z,23.80
2023-07-02T23:29:26.195Z,23.80
2023-07-02T23:31:55.190Z,23.80
2023-07-02T23:34:26.230Z,23.70
2023-07-02T23:36:55.315Z,23.70
2023-07-02T23:39:24.435Z,23.60
2023-07-02T23:41:53.542Z,23.70
2023-07-02T23:44:23.931Z,23.60
2023-07-02T23:46:53.035Z,23.60
2023-07-02T23:49:21.920Z,23.50
2023-07-02T23:51:50.765Z,23.50
2023-07-02T23:54:19.689Z,23.40
2023-07-02T23:56:48.695Z,23.30
2023-07-02T23:59:17.607Z,23.20
